x

Slate Island (45136) Wave Buoy

3:00pm - Wed 27th Jul 2016 All times are CDT. -5 hours from GMT.

  • Sig Wave height 0.3ft
  • Peak Period 2s
  • Wind
    11mph
  • Sea Temp 60°f
  • Air Temp 61°f
  • Sea Pressure 1016.5mb
  • Slate Island
  • Slate Island

More Historic Weather Station data

Upgrade to MSW Pro to gain access to the past 30 days of data for over 8000 Wavebouys and Weather Stations around the globe.

Join Pro

Comparision Forecast

View Surf forecast
   
Wed 07/27 3:00pm 0.3ft 2s 11
mph
1016.5mb 60f 61f
2:00pm 0.3ft 2s 9 11 mph 1016.9mb 60f 61f
1:00pm 0.3ft 3s 9
mph
1017.1mb 60f 61f
12:00pm 0.3ft 3s 7 9 mph 1017.4mb 60f 60f
11:00am 0.3ft 2s 7 9 mph 1017.2mb 60f 60f
10:00am 0.7ft 2s 2 4 mph 1017mb 60f 61f
9:00am 0.7ft 2s 2 4 mph 1016.9mb 59f 61f
8:00am 1ft 3s 4 7 mph 1016.9mb 58f 60f
7:00am 1ft 2s 9
mph
1016.5mb 58f 60f
6:00am 1ft 2s 9 11 mph 1016.7mb 58f 61f
5:00am 0.7ft 3s 7 9 mph 1015.7mb 58f 61f
4:00am 0.7ft 3s 9
mph
1014.8mb 58f 62f
3:00am 0.7ft 3s 7 9 mph 1014.5mb 59f 61f
2:00am 0.7ft 3s 2
mph
1014.3mb 59f 59f
1:00am 0.7ft 3s 9 11 mph 1013.6mb 59f 59f
12:00am 0.7ft 3s 2 4 mph 1013.4mb 59f 58f
Tue 07/26 11:00pm 0.7ft 4s 2
mph
1013.4mb 59f 59f
10:00pm 0.7ft 4s 2 4 mph 1013.1mb 59f 60f
9:00pm 0.7ft 4s 4 7 mph 1012.6mb 60f 59f
8:00pm 0.7ft 4s 2 4 mph 1012.2mb 59f 60f
7:00pm 1ft 3s 2 4 mph 1012.3mb 59f 63f
6:00pm 0.7ft 4s 2 7 mph 1012mb 59f 63f
5:00pm 1ft 3s 9
mph
1012mb 59f 61f
4:00pm 1ft 3s 7
mph
1012.1mb 59f 63f
3:00pm 1ft 3s 9 11 mph 1012.5mb 59f 61f
2:00pm 1ft 3s 11 13 mph 1012.7mb 59f 60f
1:00pm 1ft 3s 9 11 mph 1013mb 59f 60f
12:00pm 1.3ft 4s 7 9 mph 1013.3mb 59f 60f
11:00am 1.3ft 4s 4 11 mph 1013.5mb 59f 61f
10:00am 1.6ft 4s 7 9 mph 1013.4mb 58f 59f
9:00am 1.6ft 5s 9 11 mph 1013.6mb 58f 59f
8:00am 1.6ft 5s 11
mph
1013.7mb 57f 59f
7:00am 1.6ft 4s 9 11 mph 1013.8mb 57f 59f
6:00am 1.6ft 5s 9 11 mph 1013.2mb 56f 59f
5:00am 1.6ft 5s 9
mph
1013mb 57f 58f
4:00am 1.6ft 5s 7 9 mph 1013mb 57f 58f
3:00am 2ft 5s 9 11 mph 1012.8mb 57f 60f
2:00am 2ft 5s 4
mph
1012.8mb 57f 58f
1:00am 2ft 5s 4 7 mph 1012.8mb 57f 59f
12:00am 2.5ft 5s 4 7 mph 1012.8mb 57f 59f
Mon 07/25 11:00pm 2.5ft 5s 11 13 mph 1012.4mb 57f 60f
10:00pm 2.5ft 5s 7 9 mph 1012.2mb 57f 59f
9:00pm 2.5ft 5s 7 9 mph 1012mb 57f 58f
8:00pm 2.5ft 5s 13 16 mph 1011.4mb 57f 60f
7:00pm 2.5ft 5s 11 13 mph 1011.5mb 57f 59f
6:00pm 2.5ft 4s 16 18 mph 1011.6mb 57f 60f
5:00pm 2.5ft 5s 16 18 mph 1011.7mb 57f 60f
4:00pm 2.5ft 4s 16 18 mph 1011.6mb 57f 60f
3:00pm 2.5ft 4s 13 18 mph 1011.5mb 57f 60f
2:00pm 2ft 4s 16 20 mph 1011.5mb 57f 60f
1:00pm 2ft 5s 13 16 mph 1011mb 56f 61f
12:00pm 2ft 4s 9 11 mph 1010.9mb 56f 60f
11:00am 2ft 5s 16 18 mph 1010.2mb 56f 60f
10:00am 1.6ft 4s 13 16 mph 1010.1mb 56f 59f
9:00am 1.6ft 5s 11 16 mph 1009.7mb 56f 59f
8:00am 1.6ft 5s 16 18 mph 1008.9mb 56f 59f
7:00am 1.6ft 5s 11 13 mph 1008.6mb 56f 58f
6:00am 1.6ft 5s 9 11 mph 1008.2mb 55f 58f
5:00am 1.6ft 4s  -  2 mph 1007.9mb 55f 55f
4:00am 1.6ft 4s 2
mph
1007.8mb 55f 55f
3:00am 1.6ft 4s 2
mph
1007.2mb 55f 54f
2:00am 1.6ft 4s 2 4 mph 1006.9mb 56f 55f
1:00am 1.3ft 4s 2 4 mph 1006.9mb 56f 56f
12:00am 1.3ft 4s 4
mph
1007mb 56f 56f
Sun 07/24 11:00pm 1.6ft 4s 7 9 mph 1007.2mb 56f 55f
10:00pm 1.6ft 5s 2 4 mph 1007.2mb 56f 56f
9:00pm 1.6ft 4s 7
mph
1006.9mb 56f 56f
8:00pm 1.6ft 4s 7 9 mph 1006.7mb 56f 55f
7:00pm 1.6ft 4s 4 7 mph 1006.3mb 56f 56f
6:00pm 1.6ft 5s 2
mph
1006.2mb 56f 57f
5:00pm 2ft 5s 7
mph
1006.4mb 56f 57f
4:00pm 2.5ft 5s 4 7 mph 1005.9mb 56f 57f
3:00pm 2.5ft 5s 4 7 mph 1006.3mb 56f 56f
2:00pm 3ft 5s 9
mph
1006mb 55f 56f
1:00pm 3.5ft 5s 13 16 mph 1006.5mb 56f 56f
12:00pm 3.5ft 5s 13 16 mph 1006.8mb 55f 56f
11:00am 2.5ft 4s 11 13 mph 1007.3mb 55f 56f
10:00am 2.5ft 4s 18 20 mph 1006.7mb 56f 58f
9:00am 2ft 4s 16 18 mph 1007.5mb 56f 57f
8:00am 1.6ft 3s 16 20 mph 1008.3mb 56f 58f
7:00am 1.3ft 3s 11 13 mph 1008.4mb 56f 58f
6:00am 1.3ft 3s 13 16 mph 1008.8mb 57f 58f
5:00am 1.3ft 3s 9 11 mph 1009.8mb 57f 58f
4:00am 0.3ft 2s 16 18 mph 1010.1mb 58f 60f
3:00am 0.3ft 2s 9 11 mph 1010.6mb 58f 60f
2:00am 0.3ft 2s 9
mph
1011mb 58f 60f
1:00am 0.3ft 2s 7 9 mph 1011.8mb 58f 60f
12:00am 0.3ft 4s 9 11 mph 1012mb 59f 62f
Sat 07/23 11:00pm 0.3ft 4s 7
mph
1012.5mb 59f 61f
10:00pm 0.3ft 4s 4
mph
1013mb 60f 60f